sensor_id;sensor_type;location;lat;lon;timestamp;P1;durP1;ratioP1;P2;durP2;ratioP2
29026;SDS011;16120;48.608;9.092;2022-12-18T00:02:41;88.70;;;18.13;;
29026;SDS011;16120;48.608;9.092;2022-12-18T00:06:36;88.60;;;17.47;;
29026;SDS011;16120;48.608;9.092;2022-12-18T00:10:31;84.77;;;15.90;;
29026;SDS011;16120;48.608;9.092;2022-12-18T00:14:26;84.57;;;16.83;;
29026;SDS011;16120;48.608;9.092;2022-12-18T00:18:23;87.93;;;17.37;;
29026;SDS011;16120;48.608;9.092;2022-12-18T00:22:18;85.10;;;17.40;;
29026;SDS011;16120;48.608;9.092;2022-12-18T00:26:14;85.25;;;17.42;;
29026;SDS011;16120;48.608;9.092;2022-12-18T00:30:10;83.63;;;16.47;;
29026;SDS011;16120;48.608;9.092;2022-12-18T00:34:08;84.37;;;16.20;;
29026;SDS011;16120;48.608;9.092;2022-12-18T00:38:04;77.97;;;14.87;;
29026;SDS011;16120;48.608;9.092;2022-12-18T00:41:59;82.20;;;15.48;;
29026;SDS011;16120;48.608;9.092;2022-12-18T00:45:54;84.25;;;15.75;;
29026;SDS011;16120;48.608;9.092;2022-12-18T00:49:51;83.50;;;17.17;;
29026;SDS011;16120;48.608;9.092;2022-12-18T00:53:46;91.03;;;17.30;;
29026;SDS011;16120;48.608;9.092;2022-12-18T00:57:41;79.40;;;15.15;;
29026;SDS011;16120;48.608;9.092;2022-12-18T01:01:36;79.93;;;14.87;;
29026;SDS011;16120;48.608;9.092;2022-12-18T01:05:33;79.82;;;14.90;;
29026;SDS011;16120;48.608;9.092;2022-12-18T01:09:28;82.33;;;15.40;;
29026;SDS011;16120;48.608;9.092;2022-12-18T01:13:23;82.70;;;16.90;;
29026;SDS011;16120;48.608;9.092;2022-12-18T01:17:19;85.43;;;16.70;;
29026;SDS011;16120;48.608;9.092;2022-12-18T01:21:15;86.97;;;17.95;;
29026;SDS011;16120;48.608;9.092;2022-12-18T01:25:11;83.10;;;15.13;;
29026;SDS011;16120;48.608;9.092;2022-12-18T01:29:06;83.93;;;16.45;;
29026;SDS011;16120;48.608;9.092;2022-12-18T01:33:01;81.60;;;15.87;;
29026;SDS011;16120;48.608;9.092;2022-12-18T01:37:00;84.17;;;16.50;;
29026;SDS011;16120;48.608;9.092;2022-12-18T01:40:57;83.83;;;16.37;;
29026;SDS011;16120;48.608;9.092;2022-12-18T01:44:54;86.00;;;16.03;;
29026;SDS011;16120;48.608;9.092;2022-12-18T01:48:51;85.83;;;15.90;;
29026;SDS011;16120;48.608;9.092;2022-12-18T01:52:48;80.30;;;15.73;;
29026;SDS011;16120;48.608;9.092;2022-12-18T01:56:44;88.30;;;17.13;;
29026;SDS011;16120;48.608;9.092;2022-12-18T02:00:40;83.07;;;16.07;;
29026;SDS011;16120;48.608;9.092;2022-12-18T02:04:35;83.00;;;16.80;;
29026;SDS011;16120;48.608;9.092;2022-12-18T02:08:32;85.07;;;16.70;;
29026;SDS011;16120;48.608;9.092;2022-12-18T02:12:30;87.50;;;16.00;;
29026;SDS011;16120;48.608;9.092;2022-12-18T02:16:30;81.10;;;15.63;;
29026;SDS011;16120;48.608;9.092;2022-12-18T02:20:30;83.70;;;16.00;;
29026;SDS011;16120;48.608;9.092;2022-12-18T02:24:31;86.33;;;16.67;;
29026;SDS011;16120;48.608;9.092;2022-12-18T02:28:31;78.67;;;16.00;;
29026;SDS011;16120;48.608;9.092;2022-12-18T02:32:29;82.07;;;16.07;;
29026;SDS011;16120;48.608;9.092;2022-12-18T02:36:25;78.90;;;16.03;;
29026;SDS011;16120;48.608;9.092;2022-12-18T02:40:22;87.57;;;16.03;;
29026;SDS011;16120;48.608;9.092;2022-12-18T02:44:20;83.23;;;14.80;;
29026;SDS011;16120;48.608;9.092;2022-12-18T02:48:15;83.80;;;16.37;;
29026;SDS011;16120;48.608;9.092;2022-12-18T02:52:14;94.67;;;17.70;;
29026;SDS011;16120;48.608;9.092;2022-12-18T02:56:13;86.10;;;17.17;;
29026;SDS011;16120;48.608;9.092;2022-12-18T03:00:11;92.90;;;17.23;;
29026;SDS011;16120;48.608;9.092;2022-12-18T03:04:08;84.70;;;16.20;;
29026;SDS011;16120;48.608;9.092;2022-12-18T03:08:06;83.17;;;16.00;;
29026;SDS011;16120;48.608;9.092;2022-12-18T03:12:04;86.30;;;16.97;;
29026;SDS011;16120;48.608;9.092;2022-12-18T03:16:03;88.50;;;17.77;;
29026;SDS011;16120;48.608;9.092;2022-12-18T03:20:02;86.60;;;17.23;;
29026;SDS011;16120;48.608;9.092;2022-12-18T03:23:58;85.13;;;17.30;;
29026;SDS011;16120;48.608;9.092;2022-12-18T03:27:54;82.85;;;16.58;;
29026;SDS011;16120;48.608;9.092;2022-12-18T03:31:53;84.90;;;16.10;;
29026;SDS011;16120;48.608;9.092;2022-12-18T03:35:49;77.40;;;15.53;;
29026;SDS011;16120;48.608;9.092;2022-12-18T03:39:45;86.43;;;17.37;;
29026;SDS011;16120;48.608;9.092;2022-12-18T03:43:42;81.67;;;14.50;;
29026;SDS011;16120;48.608;9.092;2022-12-18T03:47:39;83.13;;;15.77;;
29026;SDS011;16120;48.608;9.092;2022-12-18T03:51:38;83.67;;;16.10;;
29026;SDS011;16120;48.608;9.092;2022-12-18T03:55:35;78.83;;;15.60;;
29026;SDS011;16120;48.608;9.092;2022-12-18T03:59:31;85.23;;;16.53;;
29026;SDS011;16120;48.608;9.092;2022-12-18T04:03:28;79.47;;;14.57;;
29026;SDS011;16120;48.608;9.092;2022-12-18T04:07:24;80.90;;;14.93;;
29026;SDS011;16120;48.608;9.092;2022-12-18T04:11:20;76.50;;;13.80;;
29026;SDS011;16120;48.608;9.092;2022-12-18T04:15:15;78.60;;;13.87;;
29026;SDS011;16120;48.608;9.092;2022-12-18T04:19:12;74.27;;;13.40;;
29026;SDS011;16120;48.608;9.092;2022-12-18T04:23:07;79.97;;;14.90;;
29026;SDS011;16120;48.608;9.092;2022-12-18T04:27:02;87.07;;;15.77;;
29026;SDS011;16120;48.608;9.092;2022-12-18T04:30:57;76.97;;;14.00;;
29026;SDS011;16120;48.608;9.092;2022-12-18T04:34:54;81.97;;;15.33;;
29026;SDS011;16120;48.608;9.092;2022-12-18T04:38:49;74.10;;;13.57;;
29026;SDS011;16120;48.608;9.092;2022-12-18T04:42:44;83.90;;;15.10;;
29026;SDS011;16120;48.608;9.092;2022-12-18T04:46:39;75.83;;;12.90;;
29026;SDS011;16120;48.608;9.092;2022-12-18T04:50:36;80.30;;;14.35;;
29026;SDS011;16120;48.608;9.092;2022-12-18T04:54:31;77.10;;;14.07;;
29026;SDS011;16120;48.608;9.092;2022-12-18T04:58:26;75.20;;;12.43;;
29026;SDS011;16120;48.608;9.092;2022-12-18T05:02:22;75.35;;;14.50;;
29026;SDS011;16120;48.608;9.092;2022-12-18T05:06:18;80.95;;;14.60;;
29026;SDS011;16120;48.608;9.092;2022-12-18T05:10:13;86.60;;;15.63;;
29026;SDS011;16120;48.608;9.092;2022-12-18T05:14:08;78.57;;;14.73;;
29026;SDS011;16120;48.608;9.092;2022-12-18T05:18:04;74.47;;;14.00;;
29026;SDS011;16120;48.608;9.092;2022-12-18T05:22:00;78.93;;;14.23;;
29026;SDS011;16120;48.608;9.092;2022-12-18T05:25:56;77.83;;;14.23;;
29026;SDS011;16120;48.608;9.092;2022-12-18T05:29:52;77.00;;;13.63;;
29026;SDS011;16120;48.608;9.092;2022-12-18T05:33:47;75.47;;;14.88;;
29026;SDS011;16120;48.608;9.092;2022-12-18T05:37:44;81.87;;;15.27;;
29026;SDS011;16120;48.608;9.092;2022-12-18T05:41:39;80.97;;;15.00;;
29026;SDS011;16120;48.608;9.092;2022-12-18T05:45:36;77.35;;;14.45;;
29026;SDS011;16120;48.608;9.092;2022-12-18T05:49:31;75.57;;;13.47;;
29026;SDS011;16120;48.608;9.092;2022-12-18T05:53:28;80.22;;;14.40;;
29026;SDS011;16120;48.608;9.092;2022-12-18T05:57:23;80.47;;;14.10;;
29026;SDS011;16120;48.608;9.092;2022-12-18T06:01:19;79.15;;;13.75;;
29026;SDS011;16120;48.608;9.092;2022-12-18T06:05:14;73.80;;;13.00;;
29026;SDS011;16120;48.608;9.092;2022-12-18T06:09:11;77.28;;;14.05;;
29026;SDS011;16120;48.608;9.092;2022-12-18T06:13:06;76.40;;;13.50;;
29026;SDS011;16120;48.608;9.092;2022-12-18T06:17:01;79.80;;;14.50;;
29026;SDS011;16120;48.608;9.092;2022-12-18T06:20:57;75.90;;;12.57;;
29026;SDS011;16120;48.608;9.092;2022-12-18T06:24:53;75.33;;;12.70;;
29026;SDS011;16120;48.608;9.092;2022-12-18T06:28:49;71.53;;;12.13;;
29026;SDS011;16120;48.608;9.092;2022-12-18T06:32:44;76.30;;;13.50;;
29026;SDS011;16120;48.608;9.092;2022-12-18T06:36:39;76.65;;;12.85;;
29026;SDS011;16120;48.608;9.092;2022-12-18T06:40:37;80.72;;;14.55;;
29026;SDS011;16120;48.608;9.092;2022-12-18T06:44:32;76.83;;;13.67;;
29026;SDS011;16120;48.608;9.092;2022-12-18T06:48:27;73.37;;;13.00;;
29026;SDS011;16120;48.608;9.092;2022-12-18T06:52:23;85.13;;;13.87;;
29026;SDS011;16120;48.608;9.092;2022-12-18T06:56:19;78.07;;;14.45;;
29026;SDS011;16120;48.608;9.092;2022-12-18T07:00:15;73.40;;;12.30;;
29026;SDS011;16120;48.608;9.092;2022-12-18T07:04:10;73.73;;;12.60;;
29026;SDS011;16120;48.608;9.092;2022-12-18T07:08:05;75.10;;;12.77;;
29026;SDS011;16120;48.608;9.092;2022-12-18T07:12:02;77.80;;;14.15;;
29026;SDS011;16120;48.608;9.092;2022-12-18T07:16:02;76.50;;;13.03;;
29026;SDS011;16120;48.608;9.092;2022-12-18T07:19:58;77.70;;;13.83;;
29026;SDS011;16120;48.608;9.092;2022-12-18T07:23:53;80.90;;;13.30;;
29026;SDS011;16120;48.608;9.092;2022-12-18T07:27:49;71.68;;;12.32;;
29026;SDS011;16120;48.608;9.092;2022-12-18T07:31:45;76.27;;;13.10;;
29026;SDS011;16120;48.608;9.092;2022-12-18T07:35:40;71.38;;;11.70;;
29026;SDS011;16120;48.608;9.092;2022-12-18T07:39:35;78.43;;;13.70;;
29026;SDS011;16120;48.608;9.092;2022-12-18T07:43:32;80.30;;;13.33;;
29026;SDS011;16120;48.608;9.092;2022-12-18T07:47:27;74.97;;;12.17;;
29026;SDS011;16120;48.608;9.092;2022-12-18T07:51:22;72.37;;;12.17;;
29026;SDS011;16120;48.608;9.092;2022-12-18T07:55:18;75.50;;;12.85;;
29026;SDS011;16120;48.608;9.092;2022-12-18T07:59:15;77.97;;;12.37;;
29026;SDS011;16120;48.608;9.092;2022-12-18T08:03:10;76.63;;;14.20;;
29026;SDS011;16120;48.608;9.092;2022-12-18T08:07:05;73.18;;;13.13;;
29026;SDS011;16120;48.608;9.092;2022-12-18T08:11:00;76.97;;;12.97;;
29026;SDS011;16120;48.608;9.092;2022-12-18T08:14:57;76.97;;;12.40;;
29026;SDS011;16120;48.608;9.092;2022-12-18T08:18:52;78.93;;;13.30;;
29026;SDS011;16120;48.608;9.092;2022-12-18T08:22:48;80.73;;;13.03;;
29026;SDS011;16120;48.608;9.092;2022-12-18T08:26:43;77.55;;;13.73;;
29026;SDS011;16120;48.608;9.092;2022-12-18T08:30:39;76.57;;;13.47;;
29026;SDS011;16120;48.608;9.092;2022-12-18T08:34:35;79.50;;;14.40;;
29026;SDS011;16120;48.608;9.092;2022-12-18T08:38:30;83.33;;;15.33;;
29026;SDS011;16120;48.608;9.092;2022-12-18T08:42:26;77.57;;;14.20;;
29026;SDS011;16120;48.608;9.092;2022-12-18T08:46:23;78.73;;;14.73;;
29026;SDS011;16120;48.608;9.092;2022-12-18T08:50:19;77.93;;;15.73;;
29026;SDS011;16120;48.608;9.092;2022-12-18T08:54:14;85.97;;;17.77;;
29026;SDS011;16120;48.608;9.092;2022-12-18T08:58:10;84.47;;;16.20;;
29026;SDS011;16120;48.608;9.092;2022-12-18T09:02:07;84.47;;;16.57;;
29026;SDS011;16120;48.608;9.092;2022-12-18T09:06:03;87.47;;;17.90;;
29026;SDS011;16120;48.608;9.092;2022-12-18T09:09:58;83.90;;;17.40;;
29026;SDS011;16120;48.608;9.092;2022-12-18T09:14:05;84.27;;;17.77;;
29026;SDS011;16120;48.608;9.092;2022-12-18T09:18:02;87.93;;;18.50;;
29026;SDS011;16120;48.608;9.092;2022-12-18T09:21:57;89.17;;;17.77;;
29026;SDS011;16120;48.608;9.092;2022-12-18T09:25:58;84.72;;;17.45;;
29026;SDS011;16120;48.608;9.092;2022-12-18T09:29:53;92.50;;;19.37;;
29026;SDS011;16120;48.608;9.092;2022-12-18T09:33:49;89.43;;;19.73;;
29026;SDS011;16120;48.608;9.092;2022-12-18T09:37:45;92.57;;;19.60;;
29026;SDS011;16120;48.608;9.092;2022-12-18T09:41:44;89.85;;;18.60;;
29026;SDS011;16120;48.608;9.092;2022-12-18T09:45:40;98.97;;;22.17;;
29026;SDS011;16120;48.608;9.092;2022-12-18T09:49:38;108.57;;;25.87;;
29026;SDS011;16120;48.608;9.092;2022-12-18T09:53:35;116.43;;;29.07;;
29026;SDS011;16120;48.608;9.092;2022-12-18T09:57:32;110.17;;;27.50;;
29026;SDS011;16120;48.608;9.092;2022-12-18T10:01:28;95.10;;;20.50;;
29026;SDS011;16120;48.608;9.092;2022-12-18T10:05:27;99.90;;;23.90;;
29026;SDS011;16120;48.608;9.092;2022-12-18T10:09:28;99.13;;;23.00;;
29026;SDS011;16120;48.608;9.092;2022-12-18T10:13:27;102.03;;;24.77;;
29026;SDS011;16120;48.608;9.092;2022-12-18T10:17:26;97.07;;;23.70;;
29026;SDS011;16120;48.608;9.092;2022-12-18T10:21:26;99.23;;;23.23;;
29026;SDS011;16120;48.608;9.092;2022-12-18T10:25:23;99.47;;;23.30;;
29026;SDS011;16120;48.608;9.092;2022-12-18T10:29:19;111.03;;;26.67;;
29026;SDS011;16120;48.608;9.092;2022-12-18T10:33:16;105.40;;;25.42;;
29026;SDS011;16120;48.608;9.092;2022-12-18T10:37:14;102.10;;;24.93;;
29026;SDS011;16120;48.608;9.092;2022-12-18T10:41:22;99.40;;;22.20;;
29026;SDS011;16120;48.608;9.092;2022-12-18T10:45:18;98.50;;;21.30;;
29026;SDS011;16120;48.608;9.092;2022-12-18T10:49:21;96.40;;;20.10;;
29026;SDS011;16120;48.608;9.092;2022-12-18T10:53:19;93.03;;;18.27;;
29026;SDS011;16120;48.608;9.092;2022-12-18T10:57:16;99.10;;;19.37;;
29026;SDS011;16120;48.608;9.092;2022-12-18T11:01:12;99.80;;;19.97;;
29026;SDS011;16120;48.608;9.092;2022-12-18T11:05:22;97.53;;;19.87;;
29026;SDS011;16120;48.608;9.092;2022-12-18T11:09:20;96.27;;;19.80;;
29026;SDS011;16120;48.608;9.092;2022-12-18T11:13:16;97.50;;;20.17;;
29026;SDS011;16120;48.608;9.092;2022-12-18T11:17:18;97.40;;;20.00;;
29026;SDS011;16120;48.608;9.092;2022-12-18T11:21:13;106.13;;;22.80;;
29026;SDS011;16120;48.608;9.092;2022-12-18T11:25:17;105.80;;;22.60;;
29026;SDS011;16120;48.608;9.092;2022-12-18T11:29:16;103.00;;;21.53;;
29026;SDS011;16120;48.608;9.092;2022-12-18T11:33:12;100.40;;;20.90;;
29026;SDS011;16120;48.608;9.092;2022-12-18T11:37:09;95.93;;;19.80;;
29026;SDS011;16120;48.608;9.092;2022-12-18T11:41:15;96.70;;;19.10;;
29026;SDS011;16120;48.608;9.092;2022-12-18T11:45:24;99.10;;;20.17;;
29026;SDS011;16120;48.608;9.092;2022-12-18T11:49:21;99.10;;;20.13;;
29026;SDS011;16120;48.608;9.092;2022-12-18T11:53:17;101.10;;;21.20;;
29026;SDS011;16120;48.608;9.092;2022-12-18T11:57:16;96.33;;;19.43;;
29026;SDS011;16120;48.608;9.092;2022-12-18T12:01:18;101.13;;;21.80;;
29026;SDS011;16120;48.608;9.092;2022-12-18T12:05:19;104.10;;;22.17;;
29026;SDS011;16120;48.608;9.092;2022-12-18T12:09:19;99.93;;;20.50;;
29026;SDS011;16120;48.608;9.092;2022-12-18T12:13:21;98.87;;;21.00;;
29026;SDS011;16120;48.608;9.092;2022-12-18T12:17:20;100.07;;;20.77;;
29026;SDS011;16120;48.608;9.092;2022-12-18T12:21:20;113.77;;;25.17;;
29026;SDS011;16120;48.608;9.092;2022-12-18T12:25:25;100.90;;;24.27;;
29026;SDS011;16120;48.608;9.092;2022-12-18T12:29:33;101.70;;;23.70;;
29026;SDS011;16120;48.608;9.092;2022-12-18T12:33:35;105.93;;;25.77;;
29026;SDS011;16120;48.608;9.092;2022-12-18T12:37:33;108.90;;;25.20;;
29026;SDS011;16120;48.608;9.092;2022-12-18T12:41:31;104.10;;;23.37;;
29026;SDS011;16120;48.608;9.092;2022-12-18T12:45:30;109.33;;;23.93;;
29026;SDS011;16120;48.608;9.092;2022-12-18T12:49:29;107.37;;;22.33;;
29026;SDS011;16120;48.608;9.092;2022-12-18T12:53:26;109.93;;;24.50;;
29026;SDS011;16120;48.608;9.092;2022-12-18T12:57:24;105.70;;;24.80;;
29026;SDS011;16120;48.608;9.092;2022-12-18T13:01:27;104.77;;;23.77;;
29026;SDS011;16120;48.608;9.092;2022-12-18T13:05:24;104.77;;;24.20;;
29026;SDS011;16120;48.608;9.092;2022-12-18T13:09:21;102.30;;;23.80;;
29026;SDS011;16120;48.608;9.092;2022-12-18T13:13:17;105.03;;;22.20;;
29026;SDS011;16120;48.608;9.092;2022-12-18T13:17:17;109.50;;;23.20;;
29026;SDS011;16120;48.608;9.092;2022-12-18T13:21:20;105.40;;;22.67;;
29026;SDS011;16120;48.608;9.092;2022-12-18T13:25:29;104.60;;;23.50;;
29026;SDS011;16120;48.608;9.092;2022-12-18T13:33:40;105.67;;;24.40;;
29026;SDS011;16120;48.608;9.092;2022-12-18T13:37:39;104.70;;;22.87;;
29026;SDS011;16120;48.608;9.092;2022-12-18T13:41:35;105.13;;;22.00;;
29026;SDS011;16120;48.608;9.092;2022-12-18T13:49:48;103.73;;;23.30;;
29026;SDS011;16120;48.608;9.092;2022-12-18T13:53:44;104.67;;;23.93;;
29026;SDS011;16120;48.608;9.092;2022-12-18T13:57:39;108.70;;;24.30;;
29026;SDS011;16120;48.608;9.092;2022-12-18T14:01:35;112.32;;;28.45;;
29026;SDS011;16120;48.608;9.092;2022-12-18T14:05:32;105.23;;;24.57;;
29026;SDS011;16120;48.608;9.092;2022-12-18T14:09:28;107.03;;;24.50;;
29026;SDS011;16120;48.608;9.092;2022-12-18T14:13:26;111.10;;;26.17;;
29026;SDS011;16120;48.608;9.092;2022-12-18T14:17:22;111.33;;;27.17;;
29026;SDS011;16120;48.608;9.092;2022-12-18T14:21:20;112.13;;;26.90;;
29026;SDS011;16120;48.608;9.092;2022-12-18T14:25:17;119.80;;;27.10;;
29026;SDS011;16120;48.608;9.092;2022-12-18T14:29:23;116.83;;;28.10;;
29026;SDS011;16120;48.608;9.092;2022-12-18T14:33:20;113.47;;;28.93;;
29026;SDS011;16120;48.608;9.092;2022-12-18T14:37:18;113.80;;;28.23;;
29026;SDS011;16120;48.608;9.092;2022-12-18T14:41:15;107.40;;;26.67;;
29026;SDS011;16120;48.608;9.092;2022-12-18T14:45:32;126.20;;;32.47;;
29026;SDS011;16120;48.608;9.092;2022-12-18T14:49:29;107.00;;;26.70;;
29026;SDS011;16120;48.608;9.092;2022-12-18T14:53:31;108.07;;;25.07;;
29026;SDS011;16120;48.608;9.092;2022-12-18T14:57:28;114.10;;;28.23;;
29026;SDS011;16120;48.608;9.092;2022-12-18T15:01:27;109.53;;;27.17;;
29026;SDS011;16120;48.608;9.092;2022-12-18T15:05:24;119.17;;;32.50;;
29026;SDS011;16120;48.608;9.092;2022-12-18T15:09:23;112.67;;;26.00;;
29026;SDS011;16120;48.608;9.092;2022-12-18T15:13:22;110.90;;;26.83;;
29026;SDS011;16120;48.608;9.092;2022-12-18T15:17:18;110.37;;;24.60;;
29026;SDS011;16120;48.608;9.092;2022-12-18T15:21:15;106.67;;;25.77;;
29026;SDS011;16120;48.608;9.092;2022-12-18T15:25:22;99.87;;;20.80;;
29026;SDS011;16120;48.608;9.092;2022-12-18T15:29:21;97.57;;;21.73;;
29026;SDS011;16120;48.608;9.092;2022-12-18T15:33:23;100.57;;;21.17;;
29026;SDS011;16120;48.608;9.092;2022-12-18T15:37:18;100.80;;;23.43;;
29026;SDS011;16120;48.608;9.092;2022-12-18T15:41:15;105.37;;;23.97;;
29026;SDS011;16120;48.608;9.092;2022-12-18T15:45:11;99.93;;;22.70;;
29026;SDS011;16120;48.608;9.092;2022-12-18T15:49:07;99.07;;;22.07;;
29026;SDS011;16120;48.608;9.092;2022-12-18T15:53:02;97.40;;;20.07;;
29026;SDS011;16120;48.608;9.092;2022-12-18T15:56:59;101.45;;;21.33;;
29026;SDS011;16120;48.608;9.092;2022-12-18T16:00:54;95.20;;;20.30;;
29026;SDS011;16120;48.608;9.092;2022-12-18T16:04:51;98.30;;;20.77;;
29026;SDS011;16120;48.608;9.092;2022-12-18T16:08:46;97.67;;;18.83;;
29026;SDS011;16120;48.608;9.092;2022-12-18T16:12:43;104.70;;;20.90;;
29026;SDS011;16120;48.608;9.092;2022-12-18T16:16:38;101.20;;;21.30;;
29026;SDS011;16120;48.608;9.092;2022-12-18T16:20:33;98.43;;;18.53;;
29026;SDS011;16120;48.608;9.092;2022-12-18T16:24:31;94.20;;;19.08;;
29026;SDS011;16120;48.608;9.092;2022-12-18T16:28:28;94.37;;;18.53;;
29026;SDS011;16120;48.608;9.092;2022-12-18T16:32:23;96.57;;;19.03;;
29026;SDS011;16120;48.608;9.092;2022-12-18T16:36:18;97.37;;;18.77;;
29026;SDS011;16120;48.608;9.092;2022-12-18T16:40:14;96.17;;;19.07;;
29026;SDS011;16120;48.608;9.092;2022-12-18T16:44:11;92.10;;;19.80;;
29026;SDS011;16120;48.608;9.092;2022-12-18T16:48:06;98.00;;;20.03;;
29026;SDS011;16120;48.608;9.092;2022-12-18T16:52:02;101.37;;;20.00;;
29026;SDS011;16120;48.608;9.092;2022-12-18T16:55:57;100.30;;;19.97;;
29026;SDS011;16120;48.608;9.092;2022-12-18T16:59:54;94.00;;;18.97;;
29026;SDS011;16120;48.608;9.092;2022-12-18T17:03:59;97.03;;;20.77;;
29026;SDS011;16120;48.608;9.092;2022-12-18T17:07:55;94.83;;;19.87;;
29026;SDS011;16120;48.608;9.092;2022-12-18T17:11:50;93.33;;;19.20;;
29026;SDS011;16120;48.608;9.092;2022-12-18T17:15:47;101.07;;;21.63;;
29026;SDS011;16120;48.608;9.092;2022-12-18T17:19:42;96.77;;;20.13;;
29026;SDS011;16120;48.608;9.092;2022-12-18T17:23:37;95.33;;;19.60;;
29026;SDS011;16120;48.608;9.092;2022-12-18T17:27:32;92.95;;;19.42;;
29026;SDS011;16120;48.608;9.092;2022-12-18T17:31:29;94.80;;;19.30;;
29026;SDS011;16120;48.608;9.092;2022-12-18T17:35:24;97.30;;;20.60;;
29026;SDS011;16120;48.608;9.092;2022-12-18T17:39:20;94.35;;;20.80;;
29026;SDS011;16120;48.608;9.092;2022-12-18T17:43:15;94.85;;;19.67;;
29026;SDS011;16120;48.608;9.092;2022-12-18T17:47:12;93.73;;;19.17;;
29026;SDS011;16120;48.608;9.092;2022-12-18T17:51:08;94.37;;;20.30;;
29026;SDS011;16120;48.608;9.092;2022-12-18T17:55:04;98.63;;;21.10;;
29026;SDS011;16120;48.608;9.092;2022-12-18T17:58:59;96.47;;;19.60;;
29026;SDS011;16120;48.608;9.092;2022-12-18T18:02:56;94.83;;;19.43;;
29026;SDS011;16120;48.608;9.092;2022-12-18T18:06:51;99.93;;;20.00;;
29026;SDS011;16120;48.608;9.092;2022-12-18T18:10:46;94.40;;;19.17;;
29026;SDS011;16120;48.608;9.092;2022-12-18T18:14:41;100.80;;;20.30;;
29026;SDS011;16120;48.608;9.092;2022-12-18T18:18:38;95.63;;;20.92;;
29026;SDS011;16120;48.608;9.092;2022-12-18T18:22:33;94.60;;;21.20;;
29026;SDS011;16120;48.608;9.092;2022-12-18T18:26:29;94.85;;;20.60;;
29026;SDS011;16120;48.608;9.092;2022-12-18T18:30:24;106.33;;;22.60;;
29026;SDS011;16120;48.608;9.092;2022-12-18T18:34:21;103.25;;;23.60;;
29026;SDS011;16120;48.608;9.092;2022-12-18T18:38:16;101.70;;;22.17;;
29026;SDS011;16120;48.608;9.092;2022-12-18T18:42:12;98.75;;;21.02;;
29026;SDS011;16120;48.608;9.092;2022-12-18T18:46:08;101.57;;;21.85;;
29026;SDS011;16120;48.608;9.092;2022-12-18T18:50:07;98.20;;;20.50;;
29026;SDS011;16120;48.608;9.092;2022-12-18T18:54:02;98.10;;;20.20;;
29026;SDS011;16120;48.608;9.092;2022-12-18T18:57:57;96.47;;;21.03;;
29026;SDS011;16120;48.608;9.092;2022-12-18T19:01:53;94.85;;;19.65;;
29026;SDS011;16120;48.608;9.092;2022-12-18T19:05:50;98.03;;;22.07;;
29026;SDS011;16120;48.608;9.092;2022-12-18T19:09:45;102.20;;;22.37;;
29026;SDS011;16120;48.608;9.092;2022-12-18T19:13:41;102.20;;;21.33;;
29026;SDS011;16120;48.608;9.092;2022-12-18T19:17:38;100.50;;;24.10;;
29026;SDS011;16120;48.608;9.092;2022-12-18T19:21:35;115.07;;;29.30;;
29026;SDS011;16120;48.608;9.092;2022-12-18T19:25:30;137.00;;;35.57;;
29026;SDS011;16120;48.608;9.092;2022-12-18T19:29:25;129.88;;;39.53;;
29026;SDS011;16120;48.608;9.092;2022-12-18T19:33:21;142.10;;;41.37;;
29026;SDS011;16120;48.608;9.092;2022-12-18T19:37:18;125.67;;;37.50;;
29026;SDS011;16120;48.608;9.092;2022-12-18T19:41:13;122.83;;;35.17;;
29026;SDS011;16120;48.608;9.092;2022-12-18T19:45:09;129.80;;;39.97;;
29026;SDS011;16120;48.608;9.092;2022-12-18T19:49:04;137.37;;;42.20;;
29026;SDS011;16120;48.608;9.092;2022-12-18T19:53:01;139.95;;;43.13;;
29026;SDS011;16120;48.608;9.092;2022-12-18T19:56:56;129.23;;;36.87;;
29026;SDS011;16120;48.608;9.092;2022-12-18T20:00:51;128.35;;;35.50;;
29026;SDS011;16120;48.608;9.092;2022-12-18T20:04:46;112.33;;;29.70;;
29026;SDS011;16120;48.608;9.092;2022-12-18T20:08:43;121.33;;;32.43;;
29026;SDS011;16120;48.608;9.092;2022-12-18T20:12:38;109.77;;;28.50;;
29026;SDS011;16120;48.608;9.092;2022-12-18T20:16:33;112.13;;;28.85;;
29026;SDS011;16120;48.608;9.092;2022-12-18T20:20:28;119.55;;;30.88;;
29026;SDS011;16120;48.608;9.092;2022-12-18T20:24:25;115.82;;;29.13;;
29026;SDS011;16120;48.608;9.092;2022-12-18T20:28:21;118.90;;;30.60;;
29026;SDS011;16120;48.608;9.092;2022-12-18T20:32:16;116.10;;;29.17;;
29026;SDS011;16120;48.608;9.092;2022-12-18T20:36:12;109.68;;;26.55;;
29026;SDS011;16120;48.608;9.092;2022-12-18T20:40:09;118.63;;;29.57;;
29026;SDS011;16120;48.608;9.092;2022-12-18T20:44:05;104.50;;;25.90;;
29026;SDS011;16120;48.608;9.092;2022-12-18T20:48:00;102.87;;;23.70;;
29026;SDS011;16120;48.608;9.092;2022-12-18T20:51:56;105.75;;;24.27;;
29026;SDS011;16120;48.608;9.092;2022-12-18T20:55:52;110.50;;;24.83;;
29026;SDS011;16120;48.608;9.092;2022-12-18T20:59:50;107.83;;;24.70;;
29026;SDS011;16120;48.608;9.092;2022-12-18T21:03:45;112.23;;;26.47;;
29026;SDS011;16120;48.608;9.092;2022-12-18T21:07:40;113.90;;;30.03;;
29026;SDS011;16120;48.608;9.092;2022-12-18T21:11:37;107.67;;;25.17;;
29026;SDS011;16120;48.608;9.092;2022-12-18T21:15:32;110.47;;;27.13;;
29026;SDS011;16120;48.608;9.092;2022-12-18T21:19:27;111.73;;;28.80;;
29026;SDS011;16120;48.608;9.092;2022-12-18T21:23:23;112.97;;;30.30;;
29026;SDS011;16120;48.608;9.092;2022-12-18T21:27:19;127.00;;;35.93;;
29026;SDS011;16120;48.608;9.092;2022-12-18T21:31:15;137.77;;;42.40;;
29026;SDS011;16120;48.608;9.092;2022-12-18T21:35:10;136.13;;;42.78;;
29026;SDS011;16120;48.608;9.092;2022-12-18T21:39:05;140.00;;;41.83;;
29026;SDS011;16120;48.608;9.092;2022-12-18T21:43:02;133.10;;;38.37;;
29026;SDS011;16120;48.608;9.092;2022-12-18T21:46:57;137.20;;;40.90;;
29026;SDS011;16120;48.608;9.092;2022-12-18T21:50:52;146.27;;;40.80;;
29026;SDS011;16120;48.608;9.092;2022-12-18T21:54:47;128.00;;;38.50;;
29026;SDS011;16120;48.608;9.092;2022-12-18T21:58:48;135.23;;;40.60;;
29026;SDS011;16120;48.608;9.092;2022-12-18T22:02:43;135.13;;;37.80;;
29026;SDS011;16120;48.608;9.092;2022-12-18T22:06:38;134.43;;;38.60;;
29026;SDS011;16120;48.608;9.092;2022-12-18T22:10:33;120.63;;;31.80;;
29026;SDS011;16120;48.608;9.092;2022-12-18T22:14:30;117.70;;;31.37;;
29026;SDS011;16120;48.608;9.092;2022-12-18T22:18:25;123.30;;;33.20;;
29026;SDS011;16120;48.608;9.092;2022-12-18T22:22:20;129.82;;;32.42;;
29026;SDS011;16120;48.608;9.092;2022-12-18T22:26:16;123.93;;;33.83;;
29026;SDS011;16120;48.608;9.092;2022-12-18T22:30:13;124.10;;;31.27;;
29026;SDS011;16120;48.608;9.092;2022-12-18T22:34:08;119.50;;;33.87;;
29026;SDS011;16120;48.608;9.092;2022-12-18T22:38:03;113.50;;;29.70;;
29026;SDS011;16120;48.608;9.092;2022-12-18T22:41:58;125.80;;;33.35;;
29026;SDS011;16120;48.608;9.092;2022-12-18T22:45:55;127.37;;;34.77;;
29026;SDS011;16120;48.608;9.092;2022-12-18T22:49:51;125.93;;;35.60;;
29026;SDS011;16120;48.608;9.092;2022-12-18T22:53:46;123.33;;;32.60;;
29026;SDS011;16120;48.608;9.092;2022-12-18T22:57:41;131.55;;;38.90;;
29026;SDS011;16120;48.608;9.092;2022-12-18T23:01:38;129.77;;;38.00;;
29026;SDS011;16120;48.608;9.092;2022-12-18T23:05:33;132.00;;;37.97;;